METAR des aéroports

 

LFBA - AGEN (Lot-et-Garonne)
Mise à jour: 05/12/2021 18:30
faible pluie, orage
faible pluie, orage
 Vent W
Vent: W 19 km/h
Température: 7°C
Température au Vent: 4°C
Point de Rosée: 4°C
Humidité: 81%
Barometre: 1015 hPa
Nuage: orage
Visibilité: 10 km
2021/12/05 17:30 LFBA 051730Z AUTO 27010KT 9999 -RA BKN033/// BKN043/// BKN054/// ///TCU 07/04 Q1015 TEMPO 29015G25KT 3000 SHRA
LFKJ - AJACCIO (Corse-du-Sud)
Mise à jour: 05/12/2021 18:30
orage
orage
 Vent NNE
Vent: NNE 9 km/h
Température: 8°C
Température au Vent: 6°C
Point de Rosée: 6°C
Humidité: 87%
Barometre: 1003 hPa
Nuage: orage
Visibilité: 10 km
2021/12/05 17:30 LFKJ 051730Z AUTO 03005KT 9999 SCT034/// BKN044/// OVC170/// ///CB 08/06 Q1003 TEMPO SHRA
 
LFJR - ANGERS (Maine-et-Loire)
Mise à jour: 05/12/2021 18:30
couvert
couvert
 Vent WNW
Vent: WNW 9 km/h
Température: 7°C
Température au Vent: 6°C
Point de Rosée: 3°C
Humidité: 76%
Barometre: 1012 hPa
Nuage: couvert
Visibilité: 10 km
2021/12/05 17:30 LFJR 051730Z AUTO 30005KT 250V340 9999 BKN038 OVC096 07/03 Q1012
LFLP - ANNECY (Haute-Savoie)
Mise à jour: 05/12/2021 18:30
faible pluie, couvert
faible pluie, couvert
 Vent S
Vent: S 11 km/h
Température: 2°C
Température au Vent: -1°C
Point de Rosée: 1°C
Humidité: 93%
Barometre: 1007 hPa
Nuage: couvert
Visibilité: 10 km
2021/12/05 17:30 LFLP 051730Z AUTO 19006KT 9999 -RA SCT019 OVC044 02/01 Q1007 TEMPO 1500 SN BKN002
 
LFMV - AVIGNON (Vaucluse)
Mise à jour: 05/12/2021 18:30
clair
clair
 Vent NW
Vent: NW 7 km/h
Température: 3°C
Température au Vent: 1°C
Point de Rosée: 1°C
Humidité: 87%
Barometre: 1008 hPa
Visibilité: supérieure à 10 km
2021/12/05 17:30 LFMV 051730Z AUTO 31004KT CAVOK 03/01 Q1008 NOSIG
LFOA - AVORD (Cher)
Mise à jour: 05/12/2021 18:30
faible pluie, orage
faible pluie, orage
 Vent NW
Vent: NW 19 km/h
Température: 4°C
Température au Vent: 0°C
Point de Rosée: 3°C
Humidité: 93%
Barometre: 1007 hPa
Nuage: orage
Visibilité: 10 km
2021/12/05 17:30 LFOA 051730Z AUTO 31010KT 9999 -RA FEW013/// BKN024/// OVC031/// ///CB 04/03 Q1007 TEMPO 26015G25KT 4000 SHRA
 
LFSB - BALE - MULHOUSE (Haut-Rhin)
Mise à jour: 05/12/2021 18:30
nuageux
nuageux
 Vent variable
Vent: variable 4 km/h
Température: 3°C
Point de Rosée: 1°C
Humidité: 87%
Barometre: 1006 hPa
Nuage: nuageux
Visibilité: 10 km
2021/12/05 17:30 LFSB 051730Z VRB02KT 9999 BKN043 03/01 Q1006 NOSIG
LFKB - BASTIA (Haute-Corse)
Mise à jour: 05/12/2021 18:30
couvert
couvert
 Vent W
Vent: W 9 km/h
Température: 11°C
Point de Rosée: 0°C
Humidité: 47%
Barometre: 1001 hPa
Nuage: couvert
Visibilité: 10 km
2021/12/05 17:30 LFKB 051730Z AUTO 27005KT 210V350 9999 FEW096 OVC190 11/00 Q1001 BECMG 28015G25KT
 
LFOB - BEAUVAIS (Oise)
Mise à jour: 05/12/2021 18:30
faible pluie, orage
faible pluie, orage
 Vent WNW
Vent: WNW 17 km/h
Température: 5°C
Température au Vent: 2°C
Point de Rosée: 4°C
Humidité: 93%
Barometre: 1006 hPa
Nuage: orage
Visibilité: 10 km
2021/12/05 17:30 LFOB 051730Z AUTO 29009KT 9999 -RA BKN016/// BKN023/// OVC035/// ///TCU 05/04 Q1006 TEMPO 3000 SHRA BKN008 BKN020CB
LFBE - BERGERAC (Dordogne)
Mise à jour: 05/12/2021 18:30
en partie nuageux
en partie nuageux
 Vent W
Vent: W 13 km/h
Température: 6°C
Température au Vent: 3°C
Point de Rosée: 3°C
Humidité: 81%
Barometre: 1014 hPa
Nuage: en partie nuageux
Visibilité: 10 km
2021/12/05 17:30 LFBE 051730Z AUTO 26007KT 9999 SCT033 SCT170 06/03 Q1014 TEMPO 32015G25KT 4000 -SHRA BKN020TCU
 
LFMU - BEZIERS (Hérault)
Mise à jour: 05/12/2021 18:30
clair
clair
 Vent W
Vent: W 20 km/h
Température: 7°C
Température au Vent: 4°C
Point de Rosée: 0°C
Humidité: 61%
Barometre: 1010 hPa
Visibilité: supérieure à 10 km
2021/12/05 17:30 LFMU 051730Z AUTO 28011KT CAVOK 07/M00 Q1010 BECMG SCT040 FEW050TCU
LFBZ - BIARRITZ (Pyrénées-Atlantiques)
Mise à jour: 05/12/2021 18:30
orage
orage
 Vent NNW
Vent: NNW 28 km/h
Température: 10°C
Température au Vent: 7°C
Point de Rosée: 4°C
Humidité: 67%
Barometre: 1019 hPa
Nuage: orage
Visibilité: 10 km
2021/12/05 17:30 LFBZ 051730Z AUTO 33015KT 300V010 9999 FEW029/// SCT043/// BKN074/// ///CB 10/04 Q1019 TEMPO 30015G30KT 1500 TSRAGR BECMG BKN035
 
LFBD - BORDEAUX (Gironde)
Mise à jour: 05/12/2021 18:30
orage
orage
 Vent WNW
Vent: WNW 15 km/h
Température: 7°C
Température au Vent: 4°C
Point de Rosée: 5°C
Humidité: 87%
Barometre: 1016 hPa
Nuage: orage
Visibilité: 10 km
2021/12/05 17:30 LFBD 051730Z AUTO 29008KT 9999 FEW032/// SCT050/// ///CB 07/05 Q1016 TEMPO 30015G25KT 4000 -SHRA
LFSL - BRIVE (Correze)
Mise à jour: 05/12/2021 18:30
orage
orage
 Vent W
Vent: W 11 km/h
Température: 5°C
Température au Vent: 2°C
Point de Rosée: 3°C
Humidité: 87%
Barometre: 1011 hPa
Nuage: orage
Visibilité: 10 km
2021/12/05 17:30 LFSL 051730Z AUTO 26006KT 220V300 9999 FEW040/// BKN052/// OVC120/// ///CB 05/03 Q1011 TEMPO 4000 -SHRA BKN013 SCT020TCU
 
LFRK - CAEN (Calvados)
Mise à jour: 05/12/2021 18:30
légère bruine, couvert
légère bruine, couvert
 Vent NW
Vent: NW 26 km/h
Température: 7°C
Température au Vent: 3°C
Point de Rosée: 5°C
Humidité: 87%
Barometre: 1011 hPa
Nuage: couvert
Visibilité: 10 km
2021/12/05 17:30 LFRK 051730Z AUTO 32014KT 9999 -DZ BKN021 OVC030 07/05 Q1011 TEMPO 33025G35KT 3000 SHRA BKN020CB
LFKC - CALVI (Haute-Corse)
Mise à jour: 05/12/2021 18:30
nuageux
nuageux
 Vent SSW
Vent: SSW 11 km/h
Température: 9°C
Température au Vent: 7°C
Point de Rosée: 4°C
Humidité: 71%
Barometre: 1003 hPa
Nuage: nuageux
Visibilité: 10 km
2021/12/05 17:30 LFKC 051730Z AUTO 21006KT 9999 FEW037 SCT046 BKN066 09/04 Q1003 TEMPO SHRA BKN030 FEW050TCU
 
LFMD - CANNES (Alpes-Maritimes)
Mise à jour: 05/12/2021 18:30
clair
clair
 Vent N
Vent: N 9 km/h
Température: 8°C
Température au Vent: 6°C
Point de Rosée: -3°C
Humidité: 46%
Barometre: 1001 hPa
Visibilité: supérieure à 10 km
2021/12/05 17:30 LFMD 051730Z AUTO 01005KT 340V050 CAVOK 08/M03 Q1001 NOSIG
LFMK - CARCASSONNE (Aude)
Mise à jour: 05/12/2021 18:30
orage
orage
 Vent W
Vent: W 26 km/h
Température: 5°C
Température au Vent: 1°C
Point de Rosée: 3°C
Humidité: 87%
Barometre: 1013 hPa
Nuage: orage
Visibilité: 10 km
2021/12/05 17:30 LFMK 051730Z AUTO 28014KT 9999 FEW028/// BKN038/// ///TCU 05/03 Q1013 TEMPO 29018G30KT 4000 SHRA BKN014 SCT020TCU
 
LFBC - CAZAUX (Gironde)
Mise à jour: 05/12/2021 18:30
orage
orage
 Vent NW
Vent: NW 26 km/h
Température: 9°C
Température au Vent: 6°C
Point de Rosée: 3°C
Humidité: 66%
Barometre: 1016 hPa
Nuage: orage
Visibilité: 10 km
2021/12/05 17:30 LFBC 051730Z AUTO 32014KT 9999 // FEW031/// BKN039/// BKN048/// ///TCU 09/03 Q1016
LFLB - CHAMBERY (Savoie)
Mise à jour: 05/12/2021 18:30
faible pluie, nuageux
faible pluie, nuageux
 Vent SSE
Vent: SSE 9 km/h
Température: 3°C
Température au Vent: 0°C
Point de Rosée: 2°C
Humidité: 93%
Barometre: 1008 hPa
Nuage: nuageux
Visibilité: 10 km
2021/12/05 17:30 LFLB 051730Z AUTO 16005KT 9999 -RA BKN016 BKN021 BKN028 03/02 Q1008 TEMPO RA BKN014
 
LFOC - CHATEAUDUN (Eure-et-Loir)
Mise à jour: 11/10/2021 08:00
Pas Actualisé
brume, nuageux
brume, nuageux
 Vent N
Vent: N 9 km/h
Température: 11°C
Point de Rosée: 11°C
Humidité: 100%
Barometre: 1028 hPa
Nuage: nuageux
Visibilité: 3 km
2021/10/11 06:00 LFOC 110600Z AUTO 36005KT 3100 BR BKN005 BKN023 BKN028 11/11 Q1028
LFLX - CHATEAUROUX (Indre)
Mise à jour: 05/12/2021 18:30
nuageux
nuageux
 Vent W
Vent: W 22 km/h
Température: 5°C
Température au Vent: 1°C
Point de Rosée: 4°C
Humidité: 93%
Barometre: 1009 hPa
Nuage: nuageux
Visibilité: 10 km
2021/12/05 17:30 LFLX 051730Z AUTO 27012KT 9999 BKN048 05/04 Q1009 TEMPO 4000 -SHRA BKN012 SCT020TCU
 
LFRC - CHERBOURG (Manche)
Mise à jour: 05/12/2021 18:30
couvert
couvert
 Vent NNW
Vent: NNW 26 km/h
Température: 7°C
Température au Vent: 3°C
Point de Rosée: 3°C
Humidité: 76%
Barometre: 1012 hPa
Nuage: couvert
Visibilité: 10 km
2021/12/05 17:30 LFRC 051730Z AUTO 34014KT 310V010 9999 BKN021 OVC026 07/03 Q1012 BECMG 32020G35KT
LFLC - CLERMONT (Puy-De-Dôme)
Mise à jour: 05/12/2021 18:30
orage
orage
 Vent NW
Vent: NW 9 km/h
Température: 5°C
Température au Vent: 3°C
Point de Rosée: 1°C
Humidité: 76%
Barometre: 1008 hPa
Nuage: orage
Visibilité: 10 km
2021/12/05 17:30 LFLC 051730Z AUTO 31005KT 250V010 9999 BKN026/// BKN031/// BKN040/// ///TCU 05/01 Q1008 TEMPO 34015G25KT 2500 SHRASN
 
LFBG - COGNAC (Charente)
Mise à jour: 05/12/2021 18:30
clair
clair
 Vent WNW
Vent: WNW 19 km/h
Température: 8°C
Température au Vent: 4°C
Point de Rosée: 3°C
Humidité: 71%
Barometre: 1014 hPa
Visibilité: supérieure à 10 km
2021/12/05 17:30 LFBG 051730Z AUTO 29010KT CAVOK 08/03 Q1014
LFRG - DEAUVILLE (Calvados)
Mise à jour: 05/12/2021 18:30
faible pluie, brume, orage
faible pluie, brume, orage
 Vent NNW
Vent: NNW 17 km/h
Température: 6°C
Température au Vent: 3°C
Point de Rosée: 5°C
Humidité: 93%
Barometre: 1010 hPa
Nuage: orage
Visibilité: 5 km
2021/12/05 17:30 LFRG 051730Z AUTO 33009KT 290V010 5000 -RA BR FEW009/// BKN014/// OVC022/// ///TCU 06/05 Q1010 TEMPO 31020G35KT SHRA BKN015CB
 
LFSD - DIJON (Côte d-Or)
Mise à jour: 05/12/2021 18:30
couvert
couvert
 Vent variable
Vent: variable 4 km/h
Température: 2°C
Point de Rosée: 1°C
Humidité: 93%
Barometre: 1005 hPa
Nuage: couvert
Visibilité: 10 km
2021/12/05 17:30 LFSD 051730Z AUTO VRB02KT 9999 SCT016 SCT023 OVC120 02/01 Q1005
LFRD - DINARD (Ille-et-Vilaine)
Mise à jour: 05/12/2021 18:30
couvert
couvert
 Vent NNW
Vent: NNW 37 km/h
Température: 9°C
Température au Vent: 4°C
Point de Rosée: 3°C
Humidité: 66%
Barometre: 1014 hPa
Nuage: couvert
Visibilité: 10 km
2021/12/05 17:30 LFRD 051730Z AUTO 33020KT 9999 SCT042 OVC048 09/03 Q1014 BECMG 33020G30KT
 
LFGJ - DOLE (Jura)
Mise à jour: 05/12/2021 18:30
couvert
couvert
 Vent SW
Vent: SW 15 km/h
Température: 4°C
Température au Vent: 1°C
Point de Rosée: 3°C
Humidité: 93%
Barometre: 1006 hPa
Nuage: couvert
Visibilité: 10 km
2021/12/05 17:30 LFGJ 051730Z AUTO 22008KT 9999 BKN021 OVC027 04/03 Q1006 TEMPO BKN012 SCT030TCU
FMCZ - DZAOUDZI-PAMANDZI (Mayotte)
Mise à jour: 05/12/2021 18:30
clair
clair
 Vent WNW
Vent: WNW 6 km/h
Température: 27°C
Humidex: 31°C
Point de Rosée: 24°C
Humidité: 84%
Barometre: 1014 hPa
Visibilité: supérieure à 10 km
2021/12/05 17:30 FMCZ 051730Z AUTO 29003KT 270V330 CAVOK 27/24 Q1014 NOSIG
 
LFOE - EVREUX (Eure)
Mise à jour: 05/12/2021 18:30
nuageux
nuageux
 Vent WNW
Vent: WNW 22 km/h
Température: 5°C
Température au Vent: 1°C
Point de Rosée: 4°C
Humidité: 93%
Barometre: 1008 hPa
Nuage: nuageux
Visibilité: 10 km
2021/12/05 17:30 LFOE 051730Z AUTO 30012KT 9999 SCT011 SCT021 BKN027 05/04 Q1008 TEMPO 3000 SHRA BKN020CB
LFKF - FIGARI (Corse-du-Sud)
Mise à jour: 05/12/2021 18:30
orage
orage
 Vent WSW
Vent: WSW 11 km/h
Température: 9°C
Température au Vent: 7°C
Point de Rosée: 5°C
Humidité: 76%
Barometre: 1003 hPa
Nuage: orage
Visibilité: 10 km
2021/12/05 17:30 LFKF 051730Z AUTO 25006KT 220V290 9999 FEW036/// BKN076/// BKN100/// ///TCU 09/05 Q1003 TEMPO 3000 SHRA
 
LFLS - GRENOBLE (Isère)
Mise à jour: 05/12/2021 18:30
faible pluie, orage
faible pluie, orage
 Vent E
Vent: E 9 km/h
Température: 2°C
Température au Vent: -1°C
Point de Rosée: 1°C
Humidité: 93%
Barometre: 1007 hPa
Nuage: orage
Visibilité: 10 km
2021/12/05 17:30 LFLS 051730Z AUTO 08005KT 9999 -RA FEW027/// SCT040/// BKN049/// ///TCU 02/01 Q1007 TEMPO 1500 SN BKN002
LFTH - HYERES (Var)
Mise à jour: 05/12/2021 18:30
clair
clair
 Vent NW
Vent: NW 28 km/h
Température: 9°C
Température au Vent: 6°C
Point de Rosée: -2°C
Humidité: 46%
Barometre: 1003 hPa
Visibilité: supérieure à 10 km
2021/12/05 17:30 LFTH 051730Z AUTO 31015KT 280V340 CAVOK 09/M02 Q1003 TEMPO 33025G35KT
 
LFMI - ISTRES Bouches-du-Rhône)
Mise à jour: 05/12/2021 18:30
clair
clair
 Vent W
Vent: W 11 km/h
Température: 3°C
Température au Vent: 0°C
Point de Rosée: 1°C
Humidité: 87%
Barometre: 1007 hPa
Visibilité: supérieure à 10 km
2021/12/05 17:30 LFMI 051730Z AUTO 28006KT CAVOK 03/01 Q1007 TEMPO 32015G25KT
LFRI - LA ROCHE SUR YON (Vendée)
Mise à jour: 05/12/2021 18:30
couvert
couvert
 Vent NW
Vent: NW 15 km/h
Température: 7°C
Température au Vent: 4°C
Point de Rosée: 4°C
Humidité: 81%
Barometre: 1014 hPa
Nuage: couvert
Visibilité: 10 km
2021/12/05 17:30 LFRI 051730Z AUTO 31008KT 9999 SCT041 BKN049 OVC056 07/04 Q1014 NOSIG
 
LFBH - LA ROCHELLE (Charente-Maritime)
Mise à jour: 05/12/2021 18:30
couvert
couvert
 Vent NW
Vent: NW 37 km/h
Température: 10°C
Température au Vent: 6°C
Point de Rosée: 4°C
Humidité: 67%
Barometre: 1014 hPa
Nuage: couvert
Visibilité: 10 km
2021/12/05 17:30 LFBH 051730Z AUTO 31020KT 9999 BKN048 BKN064 OVC078 10/04 Q1014 TEMPO 32015G25KT
LFRJ - LANDIVISIAU (Finistère)
Mise à jour: 05/12/2021 18:30
en partie nuageux
en partie nuageux
 Vent NNW
Vent: NNW 26 km/h
Température: 8°C
Température au Vent: 4°C
Point de Rosée: 2°C
Humidité: 66%
Barometre: 1017 hPa
Nuage: en partie nuageux
Visibilité: 10 km
2021/12/05 17:30 LFRJ 051730Z AUTO 34014KT 9999 SCT034 08/02 Q1017
 
LFOV - LAVAL (Mayenne)
Mise à jour: 05/12/2021 18:30
couvert
couvert
 Vent NW
Vent: NW 19 km/h
Température: 7°C
Température au Vent: 4°C
Point de Rosée: 3°C
Humidité: 76%
Barometre: 1012 hPa
Nuage: couvert
Visibilité: 10 km
2021/12/05 17:30 LFOV 051730Z AUTO 31010KT 280V340 9999 BKN040 OVC050 07/03 Q1012
LFOH - LE HAVRE (Seine-Maritime)
Mise à jour: 05/12/2021 18:30
orage
orage
 Vent N
Vent: N 37 km/h
Température: 7°C
Température au Vent: 2°C
Point de Rosée: 5°C
Humidité: 87%
Barometre: 1009 hPa
Nuage: orage
Visibilité: 10 km
2021/12/05 17:30 LFOH 051730Z AUTO 36020KT 9999 BKN018/// BKN024/// OVC029/// ///TCU 07/05 Q1009 TEMPO 34025G40KT 3000 SHRA BKN020CB
 
TFFF - LE LAMENTIN (Martinique)
Mise à jour: 05/12/2021 18:30
nuageux
nuageux
 Vent ESE
Vent: ESE 31 km/h
Température: 30°C
Humidex: 35°C
Point de Rosée: 24°C
Humidité: 70%
Barometre: 1015 hPa
Nuage: nuageux
Visibilité: 10 km
2021/12/05 17:30 TFFF 051730Z AUTO 11017KT 9999 BKN028 BKN038 BKN058 30/24 Q1015 TEMPO 11017G27KT 3000 SHRA BKN020TCU
LFAT - LE TOUQUET (Pas-de-Calais)
Mise à jour: 05/12/2021 18:30
orage
orage
 Vent N
Vent: N 28 km/h
Température: 7°C
Température au Vent: 3°C
Point de Rosée: 5°C
Humidité: 87%
Barometre: 1006 hPa
Nuage: orage
Visibilité: 10 km
2021/12/05 17:30 LFAT 051730Z AUTO 36015KT 330V050 9999 BKN019/// BKN029/// BKN038/// ///TCU 07/05 Q1006 TEMPO 34020G30KT 3000 SHRA BKN008 BKN020CB
 
LFQQ - LILLE (Nord)
Mise à jour: 05/12/2021 18:30
faible pluie, orage
faible pluie, orage
 Vent W
Vent: W 6 km/h
Température: 5°C
Point de Rosée: 4°C
Humidité: 93%
Barometre: 1005 hPa
Nuage: orage
Visibilité: 10 km
2021/12/05 17:30 LFQQ 051730Z AUTO 26003KT 9999 -RA SCT026/// BKN033/// OVC040/// ///TCU 05/04 Q1005 TEMPO 3000 SHRA BKN010 BKN020CB
LFBL - LIMOGES (Haute-Vienne)
Mise à jour: 05/12/2021 18:30
couvert
couvert
 Vent WNW
Vent: WNW 13 km/h
Température: 3°C
Température au Vent: -1°C
Point de Rosée: 2°C
Humidité: 93%
Barometre: 1011 hPa
Nuage: couvert
Visibilité: 10 km
2021/12/05 17:30 LFBL 051730Z AUTO 30007KT 270V330 9999 BKN015 BKN023 OVC040 03/02 Q1011 TEMPO 4000 -SHRA BKN008 SCT010TCU
 
LFRH - LANN BIHOUE (Morbihan)
Mise à jour: 05/12/2021 18:30
clair
clair
 Vent NW
Vent: NW 20 km/h
Température: 8°C
Température au Vent: 4°C
Point de Rosée: 3°C
Humidité: 71%
Barometre: 1016 hPa
Visibilité: supérieure à 10 km
2021/12/05 17:30 LFRH 051730Z AUTO 31011KT 270V330 CAVOK 08/03 Q1016 NOSIG
LFSX - LUXEUIL (Haute-Saône)
Mise à jour: 05/12/2021 18:30
faible pluie, couvert
faible pluie, couvert
 Vent SE
Vent: SE 4 km/h
Température: 2°C
Point de Rosée: 1°C
Humidité: 93%
Barometre: 1005 hPa
Nuage: couvert
Visibilité: 10 km
2021/12/05 17:30 LFSX 051730Z AUTO 13002KT 9999 -RA BKN010 BKN017 OVC023 02/01 Q1005
 
LFLY - LYON Bron (Rhône)
Mise à jour: 05/12/2021 18:30
pluie, orage
pluie, orage
 Vent W
Vent: W 13 km/h
Température: 5°C
Température au Vent: 2°C
Point de Rosée: 2°C
Humidité: 81%
Barometre: 1007 hPa
Nuage: orage
Visibilité: 7 km
2021/12/05 17:30 LFLY 051730Z AUTO 28007KT 240V320 7000 RA BKN024/// BKN032/// OVC038/// ///TCU 05/02 Q1007 TEMPO 3000 SHSNRA BKN008 FEW020CB BKN025TCU
LFLL - LYON Saint-Exupery (Rhône)
Mise à jour: 05/12/2021 18:30
averses de pluie, nuageux
averses de pluie, nuageux
 Vent WSW
Vent: WSW 15 km/h
Température: 4°C
Température au Vent: 1°C
Point de Rosée: 2°C
Humidité: 87%
Barometre: 1007 hPa
Nuage: nuageux
Visibilité: 6 km
2021/12/05 17:30 LFLL 051730Z 25008KT 220V290 6000 SHRA BKN015 BKN026 BKN040 04/02 Q1007 NOSIG
 
LFML - MARSEILLE PROVENCE (Bouches-du-Rhône)
Mise à jour: 05/12/2021 18:30
clair
clair
 Vent W
Vent: W 17 km/h
Température: 6°C
Température au Vent: 3°C
Point de Rosée: 2°C
Humidité: 76%
Barometre: 1007 hPa
Visibilité: supérieure à 10 km
2021/12/05 17:30 LFML 051730Z AUTO 28009KT CAVOK 06/02 Q1007 TEMPO 33017G27KT
LFJL - METZ-NANCY LORRAINE (Moselle)
Mise à jour: 05/12/2021 18:30
faible pluie, nuageux
faible pluie, nuageux
 Vent SSW
Vent: SSW 7 km/h
Température: 3°C
Température au Vent: 1°C
Point de Rosée: 2°C
Humidité: 93%
Barometre: 1005 hPa
Nuage: nuageux
Visibilité: 6 km
2021/12/05 17:30 LFJL 051730Z AUTO 20004KT 6000 -RA FEW006 BKN011 BKN017 03/02 Q1005 TEMPO BKN008 OVC015
 
LFBM - MONT DE MARSAN (Landes)
Mise à jour: 05/12/2021 18:30
clair
clair
 Vent WSW
Vent: WSW 9 km/h
Température: 5°C
Température au Vent: 3°C
Point de Rosée: 4°C
Humidité: 93%
Barometre: 1017 hPa
Visibilité: supérieure à 10 km
2021/12/05 17:30 LFBM 051730Z AUTO 25005KT CAVOK 05/04 Q1017 TEMPO 30015G25KT 3000 SHRA BKN015TCU
LFMT - MONTPELLIER (Hérault)
Mise à jour: 05/12/2021 18:30
clair
clair
 Vent NW
Vent: NW 26 km/h
Température: 8°C
Température au Vent: 4°C
Point de Rosée: -1°C
Humidité: 53%
Barometre: 1009 hPa
Visibilité: supérieure à 10 km
2021/12/05 17:30 LFMT 051730Z AUTO 31014KT CAVOK 08/M01 Q1009 NOSIG
 
LFRS - NANTES (Loire-Atlantique)
Mise à jour: 05/12/2021 18:30
nuageux
nuageux
 Vent WNW
Vent: WNW 7 km/h
Température: 7°C
Température au Vent: 6°C
Point de Rosée: 3°C
Humidité: 76%
Barometre: 1014 hPa
Nuage: nuageux
Visibilité: 10 km
2021/12/05 17:30 LFRS 051730Z AUTO 30004KT 9999 BKN043 BKN049 07/03 Q1014 NOSIG
LFMN - NICE Alpes-Maritimes)
Mise à jour: 05/12/2021 18:30
en partie nuageux
en partie nuageux
 Vent NNW
Vent: NNW 13 km/h
Température: 10°C
Température au Vent: 8°C
Point de Rosée: -1°C
Humidité: 47%
Barometre: 1001 hPa
Nuage: en partie nuageux
Visibilité: 10 km
2021/12/05 17:30 LFMN 051730Z 33007KT 9999 FEW050 SCT200 10/M01 Q1001 NOSIG
 
LFMO - ORANGE (Vaucluse)
Mise à jour: 05/12/2021 18:30
clair
clair
 Vent NW
Vent: NW 11 km/h
Température: 4°C
Température au Vent: 1°C
Point de Rosée: 1°C
Humidité: 81%
Barometre: 1008 hPa
Visibilité: supérieure à 10 km
2021/12/05 17:30 LFMO 051730Z AUTO 32006KT CAVOK 04/01 Q1008 NOSIG
LFPG - PARIS CH. DE-GAULLE (Val d-Oise)
Mise à jour: 05/12/2021 18:30
nuageux
nuageux
 Vent WNW
Vent: WNW 13 km/h
Température: 4°C
Température au Vent: 1°C
Point de Rosée: 2°C
Humidité: 87%
Barometre: 1006 hPa
Nuage: nuageux
Visibilité: 10 km
2021/12/05 17:30 LFPG 051730Z 30007KT 9999 FEW033 BKN140 04/02 Q1006 TEMPO 4000 -SHRA FEW011TCU BKN012
 
LFPB - PARIS LE BOURGET (Seine-Saint-Denis)
Mise à jour: 05/12/2021 18:30
nuageux
nuageux
 Vent W
Vent: W 7 km/h
Température: 6°C
Température au Vent: 4°C
Point de Rosée: 4°C
Humidité: 87%
Barometre: 1007 hPa
Nuage: nuageux
Visibilité: 10 km
2021/12/05 17:30 LFPB 051730Z AUTO 28004KT 240V310 9999 FEW019 SCT036 BKN043 06/04 Q1007 TEMPO 2000 SHRA FEW009CB
LFPO - PARIS ORLY (Val-de-Marne)
Mise à jour: 05/12/2021 18:30
nuageux
nuageux
 Vent NW
Vent: NW 17 km/h
Température: 6°C
Température au Vent: 3°C
Point de Rosée: 4°C
Humidité: 87%
Barometre: 1007 hPa
Nuage: nuageux
Visibilité: 10 km
2021/12/05 17:30 LFPO 051730Z 32009KT 9999 SCT013 BKN019 BKN025 06/04 Q1007 TEMPO 2000 SHRA BKN014CB
 
LFBP - PAU (Pyrénées-Atlantiques)
Mise à jour: 05/12/2021 18:30
faible pluie, orage
faible pluie, orage
 Vent variable
Vent: variable 2 km/h
Température: 4°C
Point de Rosée: 3°C
Humidité: 93%
Barometre: 1018 hPa
Nuage: orage
Visibilité: 10 km
2021/12/05 17:30 LFBP 051730Z AUTO VRB01KT 9999 -RA FEW012/// SCT023/// BKN028/// ///CB 04/03 Q1018 TEMPO 30020G30KT 2000 SNRA BKN008 BKN015CB
LFMP - PERPIGNAN (Pyrénées-Orientales)
Mise à jour: 05/12/2021 18:30
orage
orage
 Vent WNW
Vent: WNW 28 km/h
Température: 8°C
Température au Vent: 4°C
Point de Rosée: 0°C
Humidité: 57%
Barometre: 1011 hPa
Nuage: orage
Visibilité: 10 km
2021/12/05 17:30 LFMP 051730Z AUTO 29015KT 9999 FEW042/// ///TCU 08/00 Q1011 TEMPO 30027G40KT
 
TFFR - Point à Pitre (Guadeloupe)
Mise à jour: 05/12/2021 18:30
faible pluie, nuageux
faible pluie, nuageux
 Vent E
Vent: E 24 km/h
Température: 27°C
Humidex: 30°C
Point de Rosée: 23°C
Humidité: 79%
Barometre: 1016 hPa
Nuage: nuageux
Visibilité: 10 km
2021/12/05 17:30 TFFR 051730Z AUTO 09013KT 060V120 9999 -RA FEW028 SCT042 BKN072 27/23 Q1016 TEMPO 10015G25KT 3000 SHRA BKN020TCU
LFBI - POITIERS (Vienne)
Mise à jour: 05/12/2021 18:30
nuageux
nuageux
 Vent WNW
Vent: WNW 20 km/h
Température: 6°C
Température au Vent: 2°C
Point de Rosée: 3°C
Humidité: 81%
Barometre: 1012 hPa
Nuage: nuageux
Visibilité: 10 km
2021/12/05 17:30 LFBI 051730Z AUTO 30011KT 9999 FEW030 BKN042 06/03 Q1012 TEMPO 32015G25KT
 
LFRQ - QUIMPER (Finistère)
Mise à jour: 05/12/2021 18:30
en partie nuageux
en partie nuageux
 Vent NW
Vent: NW 19 km/h
Température: 8°C
Température au Vent: 4°C
Point de Rosée: 3°C
Humidité: 71%
Barometre: 1018 hPa
Nuage: en partie nuageux
Visibilité: 10 km
2021/12/05 17:30 LFRQ 051730Z AUTO 32010KT 9999 SCT032 08/03 Q1018 NOSIG
LFRN - RENNES (Ille-et-Vilaine)
Mise à jour: 05/12/2021 18:30
couvert
couvert
 Vent NNW
Vent: NNW 31 km/h
Température: 9°C
Température au Vent: 5°C
Point de Rosée: 3°C
Humidité: 66%
Barometre: 1013 hPa
Nuage: couvert
Visibilité: 10 km
2021/12/05 17:30 LFRN 051730Z AUTO 33017KT 9999 FEW041 OVC049 09/03 Q1013 TEMPO 34015G25KT
 
LFCR - RODEZ (Aveyron)
Mise à jour: 05/12/2021 18:30
faible pluie, couvert
faible pluie, couvert
 Vent W
Vent: W 22 km/h
Température: 2°C
Température au Vent: -3°C
Point de Rosée: 2°C
Humidité: 100%
Barometre: 1010 hPa
Nuage: couvert
Visibilité: 10 km
2021/12/05 17:30 LFCR 051730Z AUTO 27012KT 9999 -RA BKN011 BKN022 OVC027 02/02 Q1010 TEMPO 3000 -SHRASN OVC004 SCT010TCU
LFOP - ROUEN (Seine-Maritime)
Mise à jour: 05/12/2021 18:30
faible pluie, nuageux
faible pluie, nuageux
 Vent WNW
Vent: WNW 19 km/h
Température: 5°C
Température au Vent: 1°C
Point de Rosée: 4°C
Humidité: 93%
Barometre: 1007 hPa
Nuage: nuageux
Visibilité: 10 km
2021/12/05 17:30 LFOP 051730Z AUTO 29010KT 9999 -RA BKN010 BKN014 BKN026 05/04 Q1007 TEMPO 3000 SHRA BKN008 BKN020CB
 
LFRT - SAINT-BRIEUC (Côtes d-Armor)
Mise à jour: 05/12/2021 18:30
nuageux
nuageux
 Vent NW
Vent: NW 19 km/h
Température: 8°C
Température au Vent: 4°C
Point de Rosée: 4°C
Humidité: 76%
Barometre: 1015 hPa
Nuage: nuageux
Visibilité: 10 km
2021/12/05 17:30 LFRT 051730Z AUTO 31010KT 9999 FEW032 SCT047 BKN056 08/04 Q1015
FMEE - Saint-Denis (Réunion)
Mise à jour: 05/12/2021 18:30
clair
clair
 Vent SE
Vent: SE 15 km/h
Température: 25°C
Point de Rosée: 20°C
Humidité: 74%
Barometre: 1019 hPa
Visibilité: supérieure à 10 km
2021/12/05 17:30 FMEE 051730Z AUTO 14008KT CAVOK 25/20 Q1019 NOSIG
 
LFMH - SAINT-ETIENNE (Loire)
Mise à jour: 05/12/2021 18:30
faible pluie, nuageux
faible pluie, nuageux
 Vent NW
Vent: NW 9 km/h
Température: 4°C
Température au Vent: 2°C
Point de Rosée: 0°C
Humidité: 75%
Barometre: 1007 hPa
Nuage: nuageux
Visibilité: 10 km
2021/12/05 17:30 LFMH 051730Z AUTO 31005KT 280V010 9999 -RA FEW022 SCT027 BKN035 04/M00 Q1007
LFRZ - SAINT-NAZAIRE (Loire-Atlantique)
Mise à jour: 05/12/2021 18:30
nuageux
nuageux
 Vent WNW
Vent: WNW 13 km/h
Température: 8°C
Température au Vent: 6°C
Point de Rosée: 3°C
Humidité: 71%
Barometre: 1015 hPa
Nuage: nuageux
Visibilité: 10 km
2021/12/05 17:30 LFRZ 051730Z AUTO 30007KT 270V340 9999 FEW035 BKN043 08/03 Q1015 NOSIG
 
LFVP - SAINT-PIERRE (St Pierre et Miquelon)
Mise à jour: 05/12/2021 18:00
nuageux
nuageux
 Vent SW
Vent: SW 30 km/h
Température: 3°C
Température au Vent: -3°C
Point de Rosée: -3°C
Humidité: 65%
Barometre: 1021 hPa
Nuage: nuageux
Visibilité: 10 km
2021/12/05 17:00 LFVP 051700Z 23016KT 9999 BKN040 03/M03 Q1021 NOSIG
LFLN - SAINT-YAN (Saône-et-Loire)
Mise à jour: 05/12/2021 18:30
pluie, orage
pluie, orage
 Vent W
Vent: W 19 km/h
Température: 4°C
Température au Vent: 0°C
Point de Rosée: 2°C
Humidité: 87%
Barometre: 1006 hPa
Nuage: orage
Visibilité: 10 km
2021/12/05 17:30 LFLN 051730Z AUTO 27010KT 230V290 9999 RA BKN016/// OVC021/// ///TCU 04/02 Q1006 TEMPO BKN013 OVC020
 
LFMY - SALON (Bouches-du-Rhône)
Mise à jour: 05/12/2021 18:30
clair
clair
 Vent W
Vent: W 7 km/h
Température: 5°C
Température au Vent: 3°C
Point de Rosée: 1°C
Humidité: 76%
Barometre: 1007 hPa
Visibilité: supérieure à 10 km
2021/12/05 17:30 LFMY 051730Z AUTO 27004KT 250V310 CAVOK 05/01 Q1007
SOCA - MATURY (Guyane)
Mise à jour: 05/12/2021 18:30
nuageux
nuageux
 Vent NE
Vent: NE 17 km/h
Température: 30°C
Humidex: 34°C
Point de Rosée: 23°C
Humidité: 66%
Barometre: 1011 hPa
Nuage: nuageux
Visibilité: 10 km
2021/12/05 17:30 SOCA 051730Z AUTO 04009KT 010V070 9999 SCT028 BKN035 BKN054 30/23 Q1011 TEMPO 2000 TSRA SCT012CB BKN015TCU
 
LFKS - SOLENZARA (Corse-du-Sud)
Mise à jour: 05/12/2021 18:30
clair
clair
 Vent NNW
Vent: NNW 7 km/h
Température: 12°C
Point de Rosée: -1°C
Humidité: 41%
Barometre: 1002 hPa
Visibilité: supérieure à 10 km
2021/12/05 17:30 LFKS 051730Z AUTO 33004KT 280V360 CAVOK 12/M01 Q1002
LFST - STRASBOURG (Bas-Rhin)
Mise à jour: 05/12/2021 18:30
nuageux
nuageux
 Vent calm
Vent: Calme
Température: 2°C
Point de Rosée: 1°C
Humidité: 93%
Barometre: 1006 hPa
Nuage: nuageux
Visibilité: 10 km
2021/12/05 17:30 LFST 051730Z AUTO 00000KT 9999 FEW035 BKN044 02/01 Q1006 NOSIG
 
LFBT - TARBES - LOURDES (Hautes-Pyrénées)
Mise à jour: 05/12/2021 18:30
faible pluie, orage
faible pluie, orage
 Vent WSW
Vent: WSW 19 km/h
Température: 3°C
Température au Vent: -2°C
Point de Rosée: 2°C
Humidité: 93%
Barometre: 1017 hPa
Nuage: orage
Visibilité: 10 km
2021/12/05 17:30 LFBT 051730Z AUTO 25010KT 9999 -RA FEW011/// SCT020/// BKN025/// ///CB 03/02 Q1017 TEMPO 28015G30KT 3000 SHRA
LFBO - TOULOUSE BLAGNAC (Haute-Garonne)
Mise à jour: 05/12/2021 18:30
orage
orage
 Vent W
Vent: W 31 km/h
Température: 6°C
Température au Vent: 1°C
Point de Rosée: 3°C
Humidité: 81%
Barometre: 1014 hPa
Nuage: orage
Visibilité: 10 km
2021/12/05 17:30 LFBO 051730Z AUTO 26017KT 9999 BKN040/// BKN052/// OVC064/// ///CB 06/03 Q1014 TEMPO 28016G26KT
 
LFOT - TOURS (Indre-et-Loire)
Mise à jour: 05/12/2021 18:30
nuageux
nuageux
 Vent WNW
Vent: WNW 11 km/h
Température: 6°C
Température au Vent: 4°C
Point de Rosée: 2°C
Humidité: 76%
Barometre: 1010 hPa
Nuage: nuageux
Visibilité: 10 km
2021/12/05 17:30 LFOT 051730Z AUTO 30006KT 9999 BKN031 06/02 Q1010 TEMPO 32015G25KT 4000 -RA
LFPN - TOUSSUS-LE-NOBLE (Yvelines)
Mise à jour: 05/12/2021 18:30
couvert
couvert
 Vent NW
Vent: NW 22 km/h
Température: 5°C
Température au Vent: 1°C
Point de Rosée: 4°C
Humidité: 93%
Barometre: 1007 hPa
Nuage: couvert
Visibilité: 10 km
2021/12/05 17:30 LFPN 051730Z AUTO 31012KT 9999 FEW018 OVC035 05/04 Q1007 TEMPO 2000 SHRAGS BKN012 BKN014CB
 
LFQB - TROYES (Aube)
Mise à jour: 05/12/2021 18:30
orage
orage
 Vent W
Vent: W 13 km/h
Température: 4°C
Température au Vent: 1°C
Point de Rosée: 3°C
Humidité: 93%
Barometre: 1006 hPa
Nuage: orage
Visibilité: 10 km
2021/12/05 17:30 LFQB 051730Z AUTO 28007KT 9999 BKN015/// BKN022/// OVC032/// ///CB 04/03 Q1006
LFSI - SAINT-DIZIER (Haute-Marne)
Mise à jour: 05/12/2021 18:30
faible pluie, nuageux
faible pluie, nuageux
 Vent WSW
Vent: WSW 7 km/h
Température: 3°C
Température au Vent: 1°C
Point de Rosée: 2°C
Humidité: 93%
Barometre: 1005 hPa
Nuage: nuageux
Visibilité: 6 km
2021/12/05 17:30 LFSI 051730Z AUTO 25004KT 6000 -RA FEW008 SCT013 BKN019 03/02 Q1005

Metar display script from Saratoga-Weather.org